Time;durP1;ratioP1;P1;durP2;ratioP2;P2;SDS_P1;SDS_P2;PMS_P1;PMS_P2;Temp;Humidity;BMP_temperature;BMP_pressure;BME280_temperature;BME280_humidity;BME280_pressure;Samples;Min_cycle;Max_cycle;Signal;HPM_P1;HPM_P2
2022/04/28 00:01:49;;;;;;;9.13;6.07;;;;;;;6.86;100.00;101708.59;5045717;28;20801;-60
2022/04/28 00:04:15;;;;;;;9.10;5.72;;;;;;;6.88;100.00;101722.53;5058391;28;20043;-60
2022/04/28 00:06:40;;;;;;;7.90;5.32;;;;;;;6.84;100.00;101710.38;5092821;28;20073;-60
2022/04/28 00:09:06;;;;;;;10.77;6.35;;;;;;;6.65;100.00;101694.13;5093246;28;20057;-60
2022/04/28 00:11:32;;;;;;;10.63;6.28;;;;;;;6.79;100.00;101722.66;5093232;28;20486;-60
2022/04/28 00:14:01;;;;;;;8.20;5.72;;;;;;;6.77;100.00;101727.03;5093540;28;20031;-60
2022/04/28 00:16:27;;;;;;;11.88;5.82;;;;;;;6.71;100.00;101719.28;5093132;28;20093;-60
2022/04/28 00:18:53;;;;;;;7.18;4.93;;;;;;;6.69;100.00;101726.28;5092831;28;20114;-60
2022/04/28 00:21:19;;;;;;;14.38;5.75;;;;;;;6.49;100.00;101703.00;5074449;28;20024;-60
2022/04/28 00:23:44;;;;;;;8.30;6.30;;;;;;;6.61;100.00;101721.16;5093145;28;20077;-60
2022/04/28 00:26:11;;;;;;;11.77;6.45;;;;;;;6.46;100.00;101689.13;5092889;28;20032;-60
2022/04/28 00:28:36;;;;;;;8.68;5.78;;;;;;;6.47;100.00;101701.31;5074599;28;20039;-61
2022/04/28 00:31:02;;;;;;;15.18;6.65;;;;;;;6.55;100.00;101717.75;5093125;28;20036;-61
2022/04/28 00:33:27;;;;;;;8.38;6.30;;;;;;;6.54;100.00;101716.88;5092697;28;20098;-60
2022/04/28 00:35:53;;;;;;;7.55;5.35;;;;;;;6.52;100.00;101707.34;5092781;28;20408;-60
2022/04/28 00:38:19;;;;;;;9.93;5.93;;;;;;;6.50;100.00;101716.94;5092588;28;20403;-61
2022/04/28 00:40:44;;;;;;;9.27;6.50;;;;;;;6.32;100.00;101684.06;5057823;28;20112;-60
2022/04/28 00:43:18;;;;;;;13.25;7.00;;;;;;;6.30;100.00;101682.38;5074317;28;20032;-60
2022/04/28 00:45:48;;;;;;;10.15;6.80;;;;;;;6.44;100.00;101706.56;5092981;28;20032;-60
2022/04/28 00:51:00;;;;;;;8.70;6.20;;;;;;;6.35;100.00;101704.09;5046157;28;20050;-60
2022/04/28 00:53:26;;;;;;;13.98;6.93;;;;;;;6.02;100.00;101653.13;5046260;28;20309;-60
2022/04/28 00:55:52;;;;;;;10.90;6.20;;;;;;;6.24;100.00;101696.38;5046221;28;20028;-60
2022/04/28 00:58:18;;;;;;;10.30;6.75;;;;;;;6.04;100.00;101667.91;5045549;28;20829;-60
2022/04/28 01:00:44;;;;;;;12.40;5.72;;;;;;;5.99;100.00;101659.25;5027154;28;20036;-60
2022/04/28 01:03:10;;;;;;;9.20;6.47;;;;;;;6.22;100.00;101699.88;5045549;28;20141;-59
2022/04/28 01:05:36;;;;;;;11.20;6.57;;;;;;;6.24;100.00;101700.72;5074951;28;20021;-60
2022/04/28 01:08:01;;;;;;;9.35;6.00;;;;;;;6.09;100.00;101676.53;5092689;28;20032;-60
2022/04/28 01:10:27;;;;;;;8.80;5.93;;;;;;;6.18;100.00;101702.50;5095999;28;20085;-60
2022/04/28 01:12:52;;;;;;;10.32;6.05;;;;;;;6.11;100.00;101693.03;5096374;28;20027;-60
2022/04/28 01:15:17;;;;;;;10.73;6.32;;;;;;;6.08;100.00;101697.44;5096484;28;20024;-60
2022/04/28 01:17:43;;;;;;;14.30;7.35;;;;;;;6.03;100.00;101692.25;5095990;28;20421;-61
2022/04/28 01:20:08;;;;;;;20.75;7.47;;;;;;;6.03;100.00;101705.28;5096082;28;20024;-61
2022/04/28 01:22:34;;;;;;;10.18;6.28;;;;;;;5.97;100.00;101701.88;5078154;28;20028;-61
2022/04/28 01:25:08;;;;;;;10.00;6.05;;;;;;;5.98;100.00;101703.63;5096369;28;20032;-61
2022/04/28 01:27:37;;;;;;;10.68;6.60;;;;;;;5.93;100.00;101703.66;5096217;28;20554;-60
2022/04/28 01:30:11;;;;;;;12.95;7.57;;;;;;;5.91;100.00;101707.19;5094278;28;20031;-61
2022/04/28 01:32:36;;;;;;;9.25;6.13;;;;;;;5.85;100.00;101700.22;5094813;28;20452;-62
2022/04/28 01:35:02;;;;;;;11.48;7.30;;;;;;;5.88;100.00;101705.44;5095172;28;20118;-61
2022/04/28 01:37:27;;;;;;;16.50;6.88;;;;;;;5.87;100.00;101708.94;5096372;28;20032;-61
2022/04/28 01:39:55;;;;;;;8.82;6.28;;;;;;;5.84;100.00;101706.34;5090539;28;20043;-61
2022/04/28 01:42:21;;;;;;;15.57;7.13;;;;;;;5.80;100.00;101709.84;5087071;28;20051;-61
2022/04/28 01:44:47;;;;;;;13.05;6.85;;;;;;;5.73;100.00;101696.88;5094866;28;20020;-61
2022/04/28 01:47:13;;;;;;;9.30;6.25;;;;;;;5.76;100.00;101696.84;5095086;28;20036;-60
2022/04/28 01:49:38;;;;;;;11.75;7.53;;;;;;;5.78;100.00;101711.59;5095355;28;20024;-60
2022/04/28 01:54:59;;;;;;;8.55;6.95;;;;;;;5.74;100.00;101704.69;5095296;28;20039;-60
2022/04/28 01:57:29;;;;;;;11.48;6.75;;;;;;;5.70;100.00;101710.81;5095103;28;20028;-61
2022/04/28 01:59:57;;;;;;;11.18;7.03;;;;;;;5.36;100.00;101649.44;5095445;28;20028;-61
2022/04/28 02:02:23;;;;;;;10.38;6.43;;;;;;;5.64;100.00;101708.28;5095701;28;20036;-61
2022/04/28 02:04:48;;;;;;;11.65;7.00;;;;;;;5.58;100.00;101703.94;5095399;28;20036;-61
2022/04/28 02:07:14;;;;;;;16.38;7.70;;;;;;;5.54;100.00;101696.19;5095114;28;20036;-60
2022/04/28 02:09:43;;;;;;;10.38;7.15;;;;;;;5.61;100.00;101709.13;5095253;28;20103;-60
2022/04/28 02:12:09;;;;;;;10.93;6.80;;;;;;;5.61;100.00;101703.09;5094507;28;20031;-61
2022/04/28 02:14:35;;;;;;;10.35;6.65;;;;;;;5.59;100.00;101704.81;5094328;28;20078;-61
2022/04/28 02:17:01;;;;;;;11.75;6.95;;;;;;;5.46;100.00;101698.00;5082176;28;20477;-60
2022/04/28 02:19:26;;;;;;;10.48;7.20;;;;;;;5.50;100.00;101699.69;5048418;28;20032;-61
2022/04/28 02:21:52;;;;;;;11.88;7.05;;;;;;;5.54;100.00;101711.84;5047583;28;20062;-61
2022/04/28 02:24:17;;;;;;;9.57;7.00;;;;;;;5.08;100.00;101634.03;5049307;28;20037;-61
2022/04/28 02:26:42;;;;;;;10.93;7.18;;;;;;;4.67;100.00;101570.97;5036205;28;20044;-61
2022/04/28 02:29:08;;;;;;;12.13;7.85;;;;;;;5.47;100.00;101711.03;5028948;28;20033;-61
2022/04/28 02:31:33;;;;;;;18.38;7.95;;;;;;;5.48;100.00;101717.06;5012819;28;20092;-61
2022/04/28 02:33:58;;;;;;;14.13;7.00;;;;;;;5.48;100.00;101717.94;5028543;28;20946;-61
2022/04/28 02:36:24;;;;;;;10.85;7.43;;;;;;;5.45;100.00;101707.53;5027882;28;20028;-60
2022/04/28 02:38:51;;;;;;;15.20;7.68;;;;;;;5.19;100.00;101682.56;5027634;28;20876;-61
2022/04/28 02:41:20;;;;;;;14.95;7.43;;;;;;;5.33;100.00;101702.44;5027193;28;20036;-60
2022/04/28 02:43:46;;;;;;;11.02;6.93;;;;;;;4.98;100.00;101649.72;5027461;28;20075;-60
2022/04/28 02:46:11;;;;;;;9.93;7.82;;;;;;;5.34;100.00;101713.75;5027243;28;20972;-60
2022/04/28 02:48:37;;;;;;;12.40;7.97;;;;;;;5.33;100.00;101714.59;5027032;28;20028;-60
2022/04/28 02:51:03;;;;;;;12.57;7.13;;;;;;;5.30;100.00;101709.41;5009563;28;20082;-60
2022/04/28 02:53:28;;;;;;;15.15;8.38;;;;;;;5.20;100.00;101697.34;5027841;28;20838;-61
2022/04/28 02:55:53;;;;;;;12.90;8.07;;;;;;;5.26;100.00;101710.31;5027562;28;20032;-61
2022/04/28 02:58:19;;;;;;;12.70;7.18;;;;;;;5.04;100.00;101679.19;5027763;28;20028;-60
2022/04/28 03:00:44;;;;;;;9.95;7.07;;;;;;;5.22;100.00;101719.03;5026972;28;20029;-61
2022/04/28 03:03:10;;;;;;;12.63;8.32;;;;;;;5.07;100.00;101697.41;5026932;28;20032;-61
2022/04/28 03:10:46;;;;;;;12.18;8.35;;;;;;;5.14;100.00;101714.72;5025505;28;20138;-61
2022/04/28 03:11:05;;;;;;;15.60;7.97;;;;;;;4.96;100.00;101696.63;5027766;28;20039;-61
2022/04/28 03:13:32;;;;;;;12.88;8.20;;;;;;;5.03;100.00;101716.56;5028886;28;20020;-61
2022/04/28 03:15:59;;;;;;;19.30;9.18;;;;;;;5.01;100.00;101717.41;5012238;28;20090;-61
2022/04/28 03:18:24;;;;;;;14.10;8.45;;;;;;;4.59;100.00;101648.25;5027685;28;20024;-61
2022/04/28 03:20:50;;;;;;;13.18;8.90;;;;;;;4.99;100.00;101714.84;5027411;28;20028;-61
2022/04/28 03:23:15;;;;;;;10.55;7.47;;;;;;;4.97;100.00;101713.97;5071412;28;20479;-61
2022/04/28 03:25:41;;;;;;;14.73;8.63;;;;;;;4.82;100.00;101693.25;5073911;28;20028;-61
2022/04/28 03:28:08;;;;;;;18.55;9.55;;;;;;;4.82;100.00;101701.06;5065205;28;20107;-61
2022/04/28 03:30:33;;;;;;;17.00;8.98;;;;;;;4.89;100.00;101715.78;5030260;28;20035;-61
2022/04/28 03:32:59;;;;;;;13.23;9.38;;;;;;;4.80;100.00;101700.19;5045005;28;20024;-61
2022/04/28 03:35:25;;;;;;;22.25;10.13;;;;;;;4.80;100.00;101710.59;5046338;28;20036;-61
2022/04/28 03:37:50;;;;;;;17.20;9.25;;;;;;;4.72;100.00;101704.59;5046168;28;20052;-60
2022/04/28 03:40:16;;;;;;;17.10;9.30;;;;;;;4.80;100.00;101714.97;5047025;28;20024;-60
2022/04/28 03:42:43;;;;;;;14.07;8.60;;;;;;;4.76;100.00;101719.31;5027806;28;20135;-60
2022/04/28 03:45:09;;;;;;;12.00;9.15;;;;;;;4.76;100.00;101714.13;5027283;28;20277;-60
2022/04/28 03:47:36;;;;;;;16.20;9.75;;;;;;;4.67;100.00;101708.06;5045231;28;20195;-60
2022/04/28 03:50:05;;;;;;;17.88;8.82;;;;;;;4.74;100.00;101726.25;5044900;28;20035;-61
2022/04/28 03:52:30;;;;;;;14.57;8.98;;;;;;;4.69;100.00;101722.81;5047056;28;20039;-60
2022/04/28 03:54:56;;;;;;;14.25;9.52;;;;;;;4.64;100.00;101714.16;5046025;28;20031;-60
2022/04/28 03:57:21;;;;;;;12.27;8.02;;;;;;;4.61;100.00;101714.16;5053487;28;20070;-60
2022/04/28 03:59:46;;;;;;;14.85;9.75;;;;;;;4.51;100.00;101702.06;5074966;28;20036;-60
2022/04/28 04:02:12;;;;;;;14.85;9.48;;;;;;;4.58;100.00;101717.66;5074958;28;20031;-61
2022/04/28 04:04:37;;;;;;;17.17;9.30;;;;;;;4.52;100.00;101722.91;5070948;28;20852;-60
2022/04/28 04:07:03;;;;;;;12.68;9.55;;;;;;;4.45;100.00;101712.50;5089156;28;20082;-60
2022/04/28 04:09:28;;;;;;;17.85;10.15;;;;;;;4.48;100.00;101718.56;5093252;28;20028;-60
2022/04/28 04:11:54;;;;;;;17.83;10.10;;;;;;;4.43;100.00;101724.66;5092821;28;20478;-60
2022/04/28 04:14:19;;;;;;;12.18;9.25;;;;;;;4.37;100.00;101715.13;5092927;28;20111;-60
2022/04/28 04:16:44;;;;;;;22.88;9.90;;;;;;;4.42;100.00;101733.34;5092448;28;20390;-60
2022/04/28 04:19:10;;;;;;;16.08;10.25;;;;;;;4.39;100.00;101728.16;5092724;28;20032;-60
2022/04/28 04:21:35;;;;;;;18.25;10.45;;;;;;;4.26;100.00;101713.47;5092974;28;20026;-60
2022/04/28 04:24:01;;;;;;;17.35;11.02;;;;;;;4.37;100.00;101737.69;5092871;28;20020;-60
2022/04/28 04:26:26;;;;;;;13.40;10.00;;;;;;;4.19;100.00;101709.16;5092879;28;20123;-60
2022/04/28 04:28:51;;;;;;;15.65;10.77;;;;;;;4.35;100.00;101736.84;5093217;28;20024;-60
2022/04/28 04:34:01;;;;;;;18.98;10.82;;;;;;;4.37;100.00;101746.34;5092866;28;20039;-60
2022/04/28 04:36:26;;;;;;;17.48;12.07;;;;;;;4.37;100.00;101758.50;5092926;28;20020;-60
2022/04/28 04:38:52;;;;;;;18.90;11.52;;;;;;;4.32;100.00;101744.66;5092730;28;20028;-60
2022/04/28 04:41:17;;;;;;;17.50;11.10;;;;;;;4.26;100.00;101732.50;5092572;28;20071;-60
2022/04/28 04:43:43;;;;;;;17.52;11.32;;;;;;;4.38;100.00;101744.63;5094772;28;20177;-60
2022/04/28 04:46:08;;;;;;;17.33;11.40;;;;;;;4.36;100.00;101746.38;5099344;28;20050;-61
2022/04/28 04:48:34;;;;;;;20.23;13.00;;;;;;;4.30;100.00;101738.56;5099693;28;20470;-60
2022/04/28 04:50:59;;;;;;;15.35;10.57;;;;;;;4.46;100.00;101758.50;5099374;28;20364;-60
2022/04/28 04:53:25;;;;;;;18.92;12.15;;;;;;;4.27;100.00;101728.19;5099321;28;20016;-60
2022/04/28 04:55:50;;;;;;;19.75;12.35;;;;;;;4.51;100.00;101759.31;5054104;28;20024;-61
2022/04/28 04:58:16;;;;;;;15.68;12.00;;;;;;;4.07;100.00;101687.50;5053564;28;20064;-60
2022/04/28 05:00:41;;;;;;;16.58;11.90;;;;;;;4.55;100.00;101761.06;5053261;28;20043;-60
2022/04/28 05:03:07;;;;;;;16.48;12.35;;;;;;;4.53;100.00;101757.56;5093184;28;20071;-60
2022/04/28 05:05:32;;;;;;;19.02;12.85;;;;;;;4.35;100.00;101727.31;5099080;28;20490;-60
2022/04/28 05:07:57;;;;;;;21.35;13.10;;;;;;;4.69;100.00;101780.09;5099111;28;20543;-60
2022/04/28 05:10:23;;;;;;;18.02;12.57;;;;;;;4.67;100.00;101766.19;5099300;28;20115;-60
2022/04/28 05:12:48;;;;;;;17.23;11.50;;;;;;;4.72;100.00;101763.59;5099205;28;20111;-60
2022/04/28 05:15:14;;;;;;;18.00;11.55;;;;;;;4.64;100.00;101748.00;5079738;28;20054;-60
2022/04/28 05:17:39;;;;;;;16.33;12.30;;;;;;;4.89;100.00;101778.28;5099178;28;20060;-60
2022/04/28 05:20:07;;;;;;;19.02;11.82;;;;;;;4.95;100.00;101793.84;5099386;28;20443;-60
2022/04/28 05:22:33;;;;;;;19.70;11.18;;;;;;;5.01;100.00;101782.53;5081271;28;20064;-60
2022/04/28 05:24:58;;;;;;;21.52;11.65;;;;;;;4.92;100.00;101762.63;5099107;28;20059;-60
2022/04/28 05:27:24;;;;;;;17.45;11.35;;;;;;;5.19;100.00;101797.19;5098866;28;20024;-60
2022/04/28 05:29:49;;;;;;;15.85;11.50;;;;;;;5.24;100.00;101795.44;5086462;28;20038;-60
2022/04/28 05:32:15;;;;;;;14.57;11.43;;;;;;;5.30;100.00;101791.06;5052003;28;20093;-60
2022/04/28 05:34:40;;;;;;;23.98;12.05;;;;;;;5.12;100.00;101745.13;5036088;28;20035;-60
2022/04/28 05:37:06;;;;;;;21.60;12.68;;;;;;;5.50;100.00;101788.31;5032662;28;20999;-60
2022/04/28 05:39:31;;;;;;;19.05;12.23;;;;;;;5.57;100.00;101795.22;5044320;28;20043;-60
2022/04/28 05:41:57;;;;;;;18.17;12.10;;;;;;;5.58;100.00;101783.91;5078482;28;20479;-60
2022/04/28 05:47:14;;;;;;;19.85;13.18;;;;;;;5.83;100.00;101797.63;5047153;28;20028;-60
2022/04/28 05:49:39;;;;;;;20.88;12.18;;;;;;;5.58;100.00;101756.09;5078485;28;20498;-60
2022/04/28 05:52:05;;;;;;;19.23;12.40;;;;;;;5.88;100.00;101799.34;5078716;28;20067;-60
2022/04/28 05:54:30;;;;;;;17.42;12.95;;;;;;;6.00;100.00;101796.63;5060535;28;20371;-60
2022/04/28 05:56:56;;;;;;;20.45;12.30;;;;;;;6.13;100.00;101802.59;5074305;28;20020;-60
2022/04/28 05:59:21;;;;;;;19.17;12.90;;;;;;;6.13;100.00;101798.25;5075011;28;20767;-60
2022/04/28 06:01:47;;;;;;;20.15;13.00;;;;;;;6.14;100.00;101788.69;5075317;28;20032;-60
2022/04/28 06:04:12;;;;;;;17.58;11.50;;;;;;;6.22;100.00;101792.06;5057380;28;20412;-60
2022/04/28 06:06:38;;;;;;;19.13;12.48;;;;;;;6.37;100.00;101811.94;5075430;28;20024;-60
2022/04/28 06:09:03;;;;;;;22.35;13.18;;;;;;;6.43;100.00;101811.88;5074876;28;20407;-60
2022/04/28 06:11:29;;;;;;;19.48;12.38;;;;;;;6.48;100.00;101815.31;5071765;28;20036;-60
2022/04/28 06:13:54;;;;;;;18.20;12.48;;;;;;;6.57;100.00;101812.59;5075192;28;20035;-60
2022/04/28 06:16:20;;;;;;;15.50;11.48;;;;;;;6.38;100.00;101783.22;5075103;28;20036;-60
2022/04/28 06:18:45;;;;;;;25.35;12.82;;;;;;;6.72;100.00;101835.94;5075031;28;20067;-59
2022/04/28 06:21:11;;;;;;;18.00;12.70;;;;;;;6.74;100.00;101823.72;5075093;28;20028;-59
2022/04/28 06:23:36;;;;;;;19.17;11.75;;;;;;;6.80;100.00;101826.25;5074923;28;20530;-59
2022/04/28 06:26:01;;;;;;;16.52;11.48;;;;;;;6.95;100.00;101838.28;5074784;28;20427;-60
2022/04/28 06:28:28;;;;;;;23.98;12.75;;;;;;;7.02;100.00;101840.78;5074903;28;20028;-60
2022/04/28 06:30:53;;;;;;;18.92;12.35;;;;;;;7.08;100.00;101838.09;5077177;28;20390;-59
2022/04/28 06:33:20;;;;;;;18.05;12.50;;;;;;;7.22;100.00;101853.59;5078445;28;20016;-59
2022/04/28 06:35:45;;;;;;;19.83;13.13;;;;;;;7.23;100.00;101836.19;5088866;28;20471;-59
2022/04/28 06:38:11;;;;;;;21.00;11.88;;;;;;;7.39;100.00;101856.00;5094315;28;20042;-60
2022/04/28 06:40:36;;;;;;;17.05;12.65;;;;;;;7.34;100.00;101835.13;5086679;28;20040;-60
2022/04/28 06:43:01;;;;;;;16.50;12.65;;;;;;;7.40;100.00;101844.66;5073672;28;20081;-60
2022/04/28 06:45:27;;;;;;;17.92;12.98;;;;;;;7.42;100.00;101846.34;5074463;28;20024;-60
2022/04/28 06:47:52;;;;;;;17.55;12.30;;;;;;;7.52;100.00;101853.19;5074442;28;20074;-60
2022/04/28 06:50:18;;;;;;;22.83;12.75;;;;;;;7.63;100.00;101855.66;5075493;28;20401;-60
2022/04/28 06:52:43;;;;;;;18.13;12.57;;;;;;;7.61;100.00;101839.97;5073899;28;20099;-60
2022/04/28 06:55:09;;;;;;;25.05;12.48;;;;;;;7.67;100.00;101839.03;5069247;28;20032;-60
2022/04/28 06:57:35;;;;;;;21.55;11.80;;;;;;;7.84;100.00;101860.53;5074237;28;20075;-60
2022/04/28 07:00:03;;;;;;;19.15;11.40;;;;;;;7.81;100.00;101850.13;5073903;28;20057;-60
2022/04/28 07:02:30;;;;;;;20.55;11.68;;;;;;;7.94;100.00;101869.97;5074165;28;20090;-60
2022/04/28 07:04:55;;;;;;;16.33;11.60;;;;;;;7.97;100.00;101850.75;5074372;28;20072;-60
2022/04/28 07:07:21;;;;;;;21.90;12.43;;;;;;;8.12;100.00;101871.44;5073723;28;20120;-60
2022/04/28 07:09:46;;;;;;;24.73;12.63;;;;;;;8.18;100.00;101863.47;5073855;28;20036;-60
2022/04/28 07:12:12;;;;;;;15.05;11.15;;;;;;;8.33;100.00;101875.50;5073879;28;20028;-60
2022/04/28 07:14:37;;;;;;;21.70;12.88;;;;;;;8.43;100.00;101874.44;5073445;28;20114;-60
2022/04/28 07:17:03;;;;;;;17.00;12.20;;;;;;;8.53;100.00;101870.75;5073640;28;20028;-60
2022/04/28 07:19:28;;;;;;;18.67;12.65;;;;;;;8.38;100.00;101831.78;5073373;28;20039;-60
2022/04/28 07:21:54;;;;;;;19.48;14.18;;;;;;;8.68;100.00;101868.75;5073321;28;20048;-60
2022/04/28 07:24:19;;;;;;;21.13;10.68;;;;;;;8.77;100.00;101867.69;5073389;28;20472;-60
2022/04/28 07:26:44;;;;;;;16.52;12.20;;;;;;;8.87;100.00;101884.97;5072663;28;20039;-59
2022/04/28 07:29:10;;;;;;;15.90;12.18;;;;;;;8.90;100.00;101884.91;5073326;28;20059;-60
2022/04/28 07:31:36;;;;;;;15.00;11.32;;;;;;;9.01;100.00;101898.69;5073159;28;20030;-59
2022/04/28 07:34:02;;;;;;;32.05;13.32;;;;;;;9.03;100.00;101883.78;5073316;28;20020;-59
2022/04/28 07:36:28;;;;;;;19.48;12.82;;;;;;;9.15;100.00;101895.78;5073110;28;20036;-60
2022/04/28 07:38:53;;;;;;;14.38;11.13;;;;;;;9.23;100.00;101899.97;5072919;28;20035;-59
2022/04/28 07:41:19;;;;;;;21.50;12.07;;;;;;;9.30;100.00;101902.44;5072943;28;20040;-59
2022/04/28 07:43:44;;;;;;;16.73;12.10;;;;;;;9.40;100.00;101899.59;5072950;28;20029;-59
2022/04/28 07:46:09;;;;;;;14.73;11.07;;;;;;;9.41;100.00;101884.75;5072548;28;20513;-60
2022/04/28 07:48:35;;;;;;;17.27;11.18;;;;;;;9.57;100.00;101899.25;5072724;28;20029;-59
2022/04/28 07:51:00;;;;;;;16.75;11.85;;;;;;;9.54;100.00;101876.56;5072462;28;20024;-60
2022/04/28 07:53:26;;;;;;;15.02;11.88;;;;;;;9.75;100.00;101898.84;5072543;28;20418;-60
2022/04/28 07:58:39;;;;;;;13.30;8.98;;;;;;;9.90;100.00;101908.97;5073367;28;20544;-60
2022/04/28 08:01:05;;;;;;;13.13;10.00;;;;;;;10.01;100.00;101912.22;5055246;28;20395;-60
2022/04/28 08:03:30;;;;;;;23.42;11.43;;;;;;;10.03;100.00;101907.81;5072512;28;20036;-60
2022/04/28 08:05:56;;;;;;;16.00;11.40;;;;;;;9.99;100.00;101889.53;5072943;28;20470;-60
2022/04/28 08:08:22;;;;;;;21.20;12.13;;;;;;;10.21;100.00;101917.03;5072375;28;20723;-60
2022/04/28 08:10:48;;;;;;;21.00;12.25;;;;;;;10.31;100.00;101930.84;5072891;28;20067;-59
2022/04/28 08:13:13;;;;;;;19.38;11.88;;;;;;;10.33;100.00;101923.75;5072173;28;20020;-60
2022/04/28 08:15:39;;;;;;;17.40;10.73;;;;;;;10.39;100.00;101918.34;5054359;28;20119;-60
2022/04/28 08:18:04;;;;;;;16.33;10.90;;;;;;;10.32;100.00;101901.88;5071862;28;20025;-59
2022/04/28 08:20:30;;;;;;;19.98;12.07;;;;;;;10.44;100.00;101890.22;5072834;28;20048;-60
2022/04/28 08:22:56;;;;;;;15.80;11.20;;;;;;;10.71;100.00;101916.63;5054371;28;20028;-60
2022/04/28 08:25:21;;;;;;;13.55;10.60;;;;;;;10.89;100.00;101924.91;5072611;28;20033;-60
2022/04/28 08:27:47;;;;;;;17.23;11.60;;;;;;;11.03;100.00;101942.06;5072089;28;20035;-60
2022/04/28 08:30:12;;;;;;;15.75;11.90;;;;;;;11.03;100.00;101921.03;5072829;28;20111;-60
2022/04/28 08:32:38;;;;;;;14.43;10.45;;;;;;;11.16;100.00;101925.03;5054322;28;20032;-59
2022/04/28 08:35:04;;;;;;;18.92;11.45;;;;;;;11.21;100.00;101928.41;5072080;28;20021;-59
2022/04/28 08:37:29;;;;;;;17.35;11.02;;;;;;;11.28;100.00;101929.97;5071733;28;20032;-60
2022/04/28 08:39:54;;;;;;;17.60;10.55;;;;;;;11.42;100.00;101926.06;5071949;28;20081;-59
2022/04/28 08:42:21;;;;;;;17.02;11.73;;;;;;;11.58;100.00;101935.22;5071461;28;20032;-60
2022/04/28 08:44:47;;;;;;;15.35;10.75;;;;;;;11.67;100.00;101929.69;5071979;28;20162;-60
2022/04/28 08:47:13;;;;;;;26.17;10.90;;;;;;;11.74;100.00;101928.63;5072791;28;20429;-60
2022/04/28 08:49:42;;;;;;;19.67;10.75;;;;;;;11.78;100.00;101919.72;5072100;28;20040;-60
2022/04/28 08:52:08;;;;;;;14.48;11.02;;;;;;;11.99;100.00;101934.00;5071626;28;20043;-60
2022/04/28 08:54:36;;;;;;;14.25;10.38;;;;;;;12.13;100.00;101931.81;5054095;28;20025;-60
2022/04/28 08:57:02;;;;;;;16.73;9.52;;;;;;;12.25;100.00;101942.81;5072254;28;20029;-60
2022/04/28 08:59:27;;;;;;;17.52;11.18;;;;;;;12.28;100.00;101939.22;5071735;28;20035;-59
2022/04/28 09:01:53;;;;;;;18.40;10.18;;;;;;;12.39;100.00;101945.00;5071817;28;20438;-60
2022/04/28 09:04:19;;;;;;;19.27;10.80;;;;;;;12.47;100.00;101942.13;5071995;28;20032;-60
2022/04/28 09:06:45;;;;;;;12.73;9.38;;;;;;;12.50;100.00;101947.28;5024664;28;20033;-60
2022/04/28 09:09:13;;;;;;;17.05;9.63;;;;;;;12.63;100.00;101944.19;5026663;28;20060;-60
2022/04/28 09:11:40;;;;;;;15.45;10.50;;;;;;;12.72;100.00;101943.00;5025582;28;20351;-60
2022/04/28 09:14:20;;;;;;;14.80;9.70;;;;;;;12.76;100.00;101934.06;5026319;28;20044;-60
2022/04/28 09:16:46;;;;;;;14.52;9.00;;;;;;;12.89;100.00;101939.78;5026842;28;20033;-60
2022/04/28 09:19:19;;;;;;;16.58;9.98;;;;;;;12.94;100.00;101929.94;5012512;28;20024;-60
2022/04/28 09:21:46;;;;;;;19.05;10.85;;;;;;;13.04;100.00;101940.13;5049996;28;20505;-60
2022/04/28 09:24:13;;;;;;;14.63;10.43;;;;;;;12.98;100.00;101924.47;5019517;28;20927;-60
2022/04/28 09:26:39;;;;;;;17.55;9.88;;;;;;;13.13;100.00;101945.09;5026307;28;20024;-60
2022/04/28 09:29:06;;;;;;;14.60;10.40;;;;;;;13.14;100.00;101941.53;5027270;28;20076;-60
2022/04/28 09:31:36;;;;;;;17.30;9.98;;;;;;;13.22;100.00;101939.47;5035374;28;20303;-60
2022/04/28 09:34:09;;;;;;;14.13;9.38;;;;;;;13.34;100.00;101929.38;5048181;28;20074;-60
2022/04/28 09:36:36;;;;;;;13.40;10.00;;;;;;;13.53;100.00;101933.06;5066396;28;20063;-60
2022/04/28 09:39:02;;;;;;;12.95;8.93;;;;;;;13.56;100.00;101932.94;5049566;28;20895;-60
2022/04/28 09:44:12;;;;;;;15.80;8.70;;;;;;;13.71;100.00;101942.94;5050900;28;20093;-60
2022/04/28 09:46:44;;;;;;;14.45;9.40;;;;;;;13.85;100.00;101935.34;5055065;28;20032;-60
2022/04/28 09:49:11;;;;;;;22.40;9.88;;;;;;;13.93;100.00;101932.38;5051137;28;20881;-60
2022/04/28 09:51:39;;;;;;;29.95;9.48;;;;;;;14.11;100.00;101935.16;5050242;28;20027;-60
2022/04/28 09:54:10;;;;;;;16.92;9.75;;;;;;;14.14;99.29;101921.81;5049009;28;20101;-59
2022/04/28 09:56:37;;;;;;;14.80;9.07;;;;;;;14.24;100.00;101932.88;5050904;28;20064;-60
2022/04/28 09:59:05;;;;;;;21.65;11.02;;;;;;;14.32;99.68;101926.38;5050041;28;20925;-60
2022/04/28 10:01:34;;;;;;;18.83;10.80;;;;;;;14.45;100.00;101931.16;5049138;28;20160;-60
2022/04/28 10:04:00;;;;;;;21.75;10.15;;;;;;;14.24;94.96;101891.44;5049070;28;20028;-60
2022/04/28 10:06:25;;;;;;;15.25;9.68;;;;;;;14.54;95.41;101925.47;5048965;28;20032;-60
2022/04/28 10:08:55;;;;;;;15.73;10.23;;;;;;;14.38;94.68;101890.03;5064805;28;20419;-59
2022/04/28 10:11:22;;;;;;;11.45;9.77;;;;;;;14.61;94.94;101926.94;5032778;28;20024;-60
2022/04/28 10:13:49;;;;;;;12.48;9.38;;;;;;;14.67;91.44;101921.38;5052394;28;20135;-59
2022/04/28 10:16:15;;;;;;;14.88;9.73;;;;;;;14.78;91.43;101913.84;5094822;28;20078;-60
2022/04/28 10:18:47;;;;;;;18.42;10.18;;;;;;;14.93;92.81;101915.84;5094540;28;20028;-59
2022/04/28 10:21:15;;;;;;;17.77;10.27;;;;;;;15.01;91.22;101916.34;5083283;28;20036;-59
2022/04/28 10:35:03;;;;;;;15.73;9.63;;;;;;;15.59;87.55;101911.09;5046304;28;20043;-60
2022/04/28 10:37:40;;;;;;;13.82;8.00;;;;;;;15.63;83.52;101907.38;5038831;28;20992;-60
2022/04/28 10:40:07;;;;;;;13.93;8.70;;;;;;;15.71;82.53;101914.06;5042565;28;20024;-60
2022/04/28 10:42:32;;;;;;;11.48;7.68;;;;;;;15.78;82.84;101917.28;5046034;28;20051;-59
2022/04/28 10:44:58;;;;;;;16.73;9.57;;;;;;;15.74;84.46;101881.22;5027572;28;20053;-60
2022/04/28 10:47:37;;;;;;;16.00;8.93;;;;;;;15.81;81.03;101899.44;5027930;28;20032;-59
2022/04/28 10:50:20;;;;;;;16.08;9.32;;;;;;;15.94;83.85;101905.00;5027635;28;20032;-60
2022/04/28 10:53:02;;;;;;;10.85;8.15;;;;;;;16.09;79.44;101908.66;5044849;28;20028;-60
2022/04/28 10:55:40;;;;;;;12.13;8.45;;;;;;;16.18;81.89;101909.09;5074302;28;20028;-60
2022/04/28 10:58:23;;;;;;;11.55;8.15;;;;;;;16.36;81.34;101908.19;5073740;28;20102;-60
2022/04/28 11:00:57;;;;;;;20.90;9.45;;;;;;;16.53;80.50;101914.41;5073939;28;20063;-59
2022/04/28 11:03:48;;;;;;;15.38;8.80;;;;;;;16.57;79.91;101903.63;5073613;28;20036;-59
2022/04/28 11:06:16;;;;;;;15.15;9.00;;;;;;;16.63;80.36;101899.78;5073951;28;20033;-60
2022/04/28 11:08:48;;;;;;;13.52;8.82;;;;;;;16.62;77.49;101903.41;5009922;28;20793;-59
2022/04/28 11:11:14;;;;;;;18.63;9.63;;;;;;;16.69;77.36;101905.66;5026671;28;20021;-59
2022/04/28 11:13:43;;;;;;;12.15;8.30;;;;;;;16.72;72.07;101888.72;5010010;28;20028;-60
2022/04/28 11:16:10;;;;;;;12.98;8.63;;;;;;;16.59;71.18;101891.16;5041354;28;20479;-60
2022/04/28 11:18:36;;;;;;;18.30;8.40;;;;;;;16.74;75.21;101900.09;5069305;28;20029;-60
2022/04/28 11:21:03;;;;;;;12.63;8.52;;;;;;;16.88;74.61;101884.31;5067312;28;20029;-59
2022/04/28 11:23:36;;;;;;;11.30;7.47;;;;;;;17.04;72.35;101885.22;5072852;28;20048;-60
2022/04/28 11:26:02;;;;;;;11.50;8.23;;;;;;;17.28;71.39;101902.50;5072594;28;20032;-60
2022/04/28 11:28:29;;;;;;;19.60;8.35;;;;;;;17.45;70.17;101898.06;5072995;28;20530;-60
2022/04/28 11:30:57;;;;;;;13.02;7.78;;;;;;;17.60;70.93;101884.84;5073151;28;20037;-59
2022/04/28 11:33:23;;;;;;;12.50;7.97;;;;;;;17.95;70.98;101896.13;5079810;28;20938;-60
2022/04/28 11:35:49;;;;;;;10.05;7.45;;;;;;;18.17;69.12;101883.31;5026851;28;20032;-60
2022/04/28 11:38:22;;;;;;;13.90;9.07;;;;;;;18.78;67.38;101893.03;5026518;28;20032;-60
2022/04/28 11:40:57;;;;;;;16.38;9.10;;;;;;;21.33;64.10;101885.88;5027881;28;20924;-60